Time;durP1;ratioP1;P1;durP2;ratioP2;P2;SDS_P1;SDS_P2;PMS_P1;PMS_P2;Temp;Humidity;BMP_temperature;BMP_pressure;BME280_temperature;BME280_humidity;BME280_pressure;Samples;Min_cycle;Max_cycle;Signal;HPM_P1;HPM_P2
2023/08/14 00:00:56;;;;;;;10.57;4.57;;;;;;;22.37;75.00;100661.03;5032995;28;20059;-71
2023/08/14 00:03:22;;;;;;;10.63;4.60;;;;;;;22.25;75.61;100674.25;5032850;28;20036;-71
2023/08/14 00:05:47;;;;;;;7.20;4.60;;;;;;;21.84;77.28;100678.91;5032692;28;20045;-71
2023/08/14 00:08:13;;;;;;;15.48;8.18;;;;;;;20.92;79.24;100601.44;5033050;28;20029;-70
2023/08/14 00:10:38;;;;;;;15.40;7.53;;;;;;;21.20;80.32;100687.94;5032697;28;20148;-70
2023/08/14 00:13:04;;;;;;;11.13;6.57;;;;;;;21.14;80.09;100688.84;5010382;28;20045;-70
2023/08/14 00:15:29;;;;;;;10.60;5.88;;;;;;;21.25;78.40;100683.56;5010376;28;20046;-71
2023/08/14 00:17:54;;;;;;;8.15;4.40;;;;;;;21.44;76.94;100682.59;5010337;28;20061;-71
2023/08/14 00:20:20;;;;;;;8.00;4.95;;;;;;;21.60;76.58;100680.81;5010392;28;20034;-70
2023/08/14 00:22:45;;;;;;;11.65;4.75;;;;;;;21.16;77.17;100622.34;5010259;28;20457;-70
2023/08/14 00:25:11;;;;;;;13.75;5.10;;;;;;;21.47;77.62;100681.69;5010199;28;20037;-70
2023/08/14 00:27:37;;;;;;;8.95;4.97;;;;;;;21.44;76.02;100681.75;5010084;28;20464;-70
2023/08/14 00:30:03;;;;;;;6.85;4.63;;;;;;;21.38;75.18;100673.88;5010058;28;20033;-71
2023/08/14 00:32:29;;;;;;;8.20;4.57;;;;;;;21.43;75.86;100673.00;5010205;28;20045;-70
2023/08/14 00:34:54;;;;;;;9.75;4.82;;;;;;;21.41;76.46;100685.25;5010082;28;20034;-72
2023/08/14 00:37:22;;;;;;;7.97;4.40;;;;;;;21.37;76.22;100675.66;5010169;28;20632;-72
2023/08/14 00:39:48;;;;;;;8.13;4.47;;;;;;;21.42;76.65;100675.59;5009882;28;20041;-71
2023/08/14 00:42:13;;;;;;;11.75;4.82;;;;;;;21.00;76.69;100611.03;5010045;28;20033;-72
2023/08/14 00:44:39;;;;;;;6.43;4.20;;;;;;;21.17;76.76;100649.44;5026150;28;20401;-72
2023/08/14 00:47:05;;;;;;;7.88;4.68;;;;;;;21.21;76.31;100666.97;5014672;28;20556;-71
2023/08/14 00:49:30;;;;;;;6.82;4.75;;;;;;;21.15;76.51;100652.09;5032107;28;20112;-72
2023/08/14 00:51:55;;;;;;;6.65;4.55;;;;;;;21.27;76.88;100672.19;5032076;28;20033;-72
2023/08/14 00:54:21;;;;;;;6.55;4.22;;;;;;;21.15;77.23;100672.22;5031953;28;20072;-71
2023/08/14 00:56:46;;;;;;;6.53;4.35;;;;;;;20.52;77.95;100605.00;5032225;28;20473;-71
2023/08/14 00:59:12;;;;;;;5.78;4.40;;;;;;;20.73;79.16;100672.31;5031501;28;20085;-71
2023/08/14 01:01:37;;;;;;;5.60;4.15;;;;;;;20.62;79.74;100668.81;5031693;28;20104;-71
2023/08/14 01:04:03;;;;;;;12.98;4.65;;;;;;;20.09;80.08;100602.41;5031716;28;20037;-71
2023/08/14 01:06:28;;;;;;;6.95;4.78;;;;;;;20.25;81.07;100674.06;5031440;28;20145;-71
2023/08/14 01:08:54;;;;;;;6.72;4.53;;;;;;;20.30;81.10;100670.59;5031997;28;20477;-71
2023/08/14 01:11:38;;;;;;;7.70;4.57;;;;;;;20.49;80.36;100667.97;5031795;28;20032;-71
2023/08/14 01:14:25;;;;;;;8.23;4.90;;;;;;;20.42;80.61;100671.47;5031711;28;20080;-71
2023/08/14 01:16:57;;;;;;;9.27;4.93;;;;;;;20.35;80.70;100653.09;5031632;28;20026;-71
2023/08/14 01:19:28;;;;;;;7.50;4.70;;;;;;;20.41;80.89;100654.88;5031624;28;20028;-71
2023/08/14 01:22:16;;;;;;;7.65;4.90;;;;;;;20.37;80.30;100660.97;5031692;28;20464;-71
2023/08/14 01:24:58;;;;;;;10.60;5.32;;;;;;;20.43;80.70;100658.34;5031229;28;20104;-71
2023/08/14 01:27:23;;;;;;;8.30;4.25;;;;;;;20.58;80.02;100667.06;5031564;28;20037;-70
2023/08/14 01:29:59;;;;;;;8.73;5.07;;;;;;;20.62;77.99;100645.19;5031395;28;20021;-71
2023/08/14 01:32:25;;;;;;;8.00;4.85;;;;;;;20.59;79.38;100668.84;5031140;28;20026;-71
2023/08/14 01:34:51;;;;;;;10.85;5.10;;;;;;;20.33;80.35;100657.47;5031042;28;20030;-71
2023/08/14 01:37:34;;;;;;;11.13;4.80;;;;;;;20.47;80.43;100681.09;5031320;28;20051;-71
2023/08/14 01:40:10;;;;;;;8.68;5.07;;;;;;;20.47;80.14;100674.94;5031092;28;20092;-71
2023/08/14 01:42:38;;;;;;;10.13;5.15;;;;;;;20.58;79.77;100667.06;5031579;28;20039;-71
2023/08/14 01:45:13;;;;;;;8.90;5.05;;;;;;;20.50;79.52;100653.97;5030776;28;20105;-71
2023/08/14 01:47:42;;;;;;;9.60;4.90;;;;;;;20.53;78.06;100665.31;5013073;28;20763;-71
2023/08/14 01:50:08;;;;;;;8.35;4.90;;;;;;;20.57;77.56;100658.31;5031154;28;20073;-71
2023/08/14 01:52:34;;;;;;;7.93;5.00;;;;;;;20.54;78.03;100663.59;5030894;28;20032;-71
2023/08/14 01:55:02;;;;;;;11.00;5.43;;;;;;;20.55;78.67;100660.09;5030808;28;20485;-71
2023/08/14 01:57:29;;;;;;;9.68;5.03;;;;;;;20.52;79.40;100660.06;5030814;28;20033;-71
2023/08/14 01:59:55;;;;;;;9.77;4.97;;;;;;;20.44;79.40;100653.97;5030924;28;20041;-71
2023/08/14 02:02:21;;;;;;;7.53;4.80;;;;;;;20.30;80.13;100649.63;5031187;28;20111;-71
2023/08/14 02:04:46;;;;;;;7.70;4.93;;;;;;;19.83;81.98;100648.69;5030896;28;20455;-71
2023/08/14 02:07:12;;;;;;;9.02;4.45;;;;;;;19.75;82.84;100660.00;5030555;28;20092;-71
2023/08/14 02:09:37;;;;;;;6.80;4.90;;;;;;;19.20;84.25;100611.84;5030614;28;20052;-71
2023/08/14 02:12:03;;;;;;;8.43;5.05;;;;;;;19.27;85.65;100663.34;5030722;28;20108;-71
2023/08/14 02:14:29;;;;;;;10.05;4.90;;;;;;;19.26;85.59;100660.72;5030734;28;20029;-71
2023/08/14 02:16:54;;;;;;;6.38;4.65;;;;;;;19.41;85.26;100660.78;5013055;28;20029;-71
2023/08/14 02:19:20;;;;;;;8.88;4.65;;;;;;;19.37;85.38;100662.50;5029728;28;20503;-71
2023/08/14 02:21:45;;;;;;;7.55;4.70;;;;;;;19.21;86.12;100665.94;5030500;28;20068;-71
2023/08/14 02:24:11;;;;;;;7.18;4.70;;;;;;;19.16;86.14;100665.91;5030300;28;20378;-71
2023/08/14 02:26:36;;;;;;;6.90;5.07;;;;;;;19.04;86.56;100663.22;5030184;28;20032;-70
2023/08/14 02:29:02;;;;;;;7.43;4.55;;;;;;;18.98;85.98;100652.72;5030574;28;20033;-70
2023/08/14 02:31:28;;;;;;;7.50;4.60;;;;;;;18.86;85.97;100667.47;5030257;28;20580;-71
2023/08/14 02:33:58;;;;;;;6.95;4.80;;;;;;;18.34;87.36;100612.22;5030625;28;20108;-71
2023/08/14 02:36:24;;;;;;;8.85;4.68;;;;;;;18.32;88.13;100663.59;5030366;28;20044;-71
2023/08/14 02:38:49;;;;;;;7.95;4.80;;;;;;;17.84;89.01;100611.75;5030431;28;20177;-70
2023/08/14 02:41:14;;;;;;;6.80;4.32;;;;;;;18.10;89.74;100674.72;5030071;28;20531;-70
2023/08/14 02:43:40;;;;;;;6.18;4.43;;;;;;;18.19;89.12;100684.38;5030325;28;20025;-71
2023/08/14 02:46:05;;;;;;;5.72;4.20;;;;;;;18.33;88.11;100676.69;5030312;28;20025;-71
2023/08/14 02:48:31;;;;;;;5.55;4.38;;;;;;;18.25;88.25;100675.75;5030071;28;20404;-70
2023/08/14 02:50:56;;;;;;;6.78;4.53;;;;;;;18.42;87.32;100681.13;5030146;28;20021;-71
2023/08/14 02:53:22;;;;;;;6.03;4.15;;;;;;;18.37;87.18;100681.06;5030158;28;20112;-70
2023/08/14 02:55:53;;;;;;;7.30;4.28;;;;;;;18.02;87.22;100616.31;5029855;28;20396;-70
2023/08/14 02:58:19;;;;;;;6.68;4.55;;;;;;;18.55;86.89;100682.06;5030341;28;20043;-71
2023/08/14 03:00:45;;;;;;;7.43;4.57;;;;;;;18.79;85.78;100684.00;5030075;28;20034;-71
2023/08/14 03:03:11;;;;;;;13.10;4.90;;;;;;;18.76;85.80;100690.06;5029990;28;20037;-71
2023/08/14 03:05:37;;;;;;;7.10;4.60;;;;;;;18.79;85.72;100683.13;5029892;28;20033;-71
2023/08/14 03:08:03;;;;;;;7.30;4.50;;;;;;;18.57;84.85;100621.09;5030131;28;20026;-71
2023/08/14 03:10:29;;;;;;;7.60;4.95;;;;;;;19.08;84.12;100676.34;5029798;28;20032;-70
2023/08/14 03:12:57;;;;;;;14.52;5.35;;;;;;;19.20;82.69;100679.88;5030040;28;20029;-70
2023/08/14 03:15:23;;;;;;;8.47;4.80;;;;;;;19.37;81.63;100685.22;5030473;28;20022;-71
2023/08/14 03:17:49;;;;;;;13.05;4.88;;;;;;;19.54;81.42;100683.53;5030308;28;20667;-71
2023/08/14 03:20:15;;;;;;;12.27;5.72;;;;;;;19.59;81.72;100680.94;5029827;28;20025;-71
2023/08/14 03:22:41;;;;;;;9.40;4.43;;;;;;;19.64;81.11;100683.53;4995033;28;20045;-71
2023/08/14 03:25:07;;;;;;;10.80;5.25;;;;;;;19.26;80.67;100621.47;5029688;28;20036;-71
2023/08/14 03:27:32;;;;;;;14.35;6.40;;;;;;;19.62;80.62;100682.69;5029990;28;20056;-70
2023/08/14 03:29:58;;;;;;;12.98;6.68;;;;;;;19.24;80.88;100622.34;5031774;28;20034;-71
2023/08/14 03:32:23;;;;;;;19.85;11.35;;;;;;;19.58;81.46;100692.28;5033604;28;20108;-71
2023/08/14 03:34:49;;;;;;;42.45;25.73;;;;;;;19.41;81.99;100694.81;5033178;28;20029;-71
2023/08/14 03:37:14;;;;;;;29.55;18.77;;;;;;;19.11;83.01;100691.19;5033794;28;20033;-71
2023/08/14 03:39:39;;;;;;;17.13;11.05;;;;;;;18.78;84.46;100689.19;5032850;28;20030;-71
2023/08/14 03:42:05;;;;;;;20.20;9.25;;;;;;;18.66;85.46;100706.56;5033371;28;20034;-70
2023/08/14 03:44:30;;;;;;;15.45;7.47;;;;;;;18.36;86.37;100668.00;5015570;28;20116;-71
2023/08/14 03:46:56;;;;;;;12.82;6.78;;;;;;;18.73;85.50;100704.88;5014988;28;20112;-70
2023/08/14 03:49:21;;;;;;;12.80;6.82;;;;;;;18.91;84.32;100699.78;5013396;28;20030;-71
2023/08/14 03:51:47;;;;;;;11.82;6.25;;;;;;;18.90;83.55;100681.44;5013729;28;20061;-71
2023/08/14 03:54:12;;;;;;;11.23;6.22;;;;;;;19.11;83.81;100695.56;4995770;28;20034;-71
2023/08/14 03:56:37;;;;;;;8.82;5.05;;;;;;;19.16;82.74;100701.69;5013467;28;20404;-70
2023/08/14 03:59:04;;;;;;;9.82;5.45;;;;;;;19.17;82.46;100699.06;5013466;28;20022;-71
2023/08/14 04:01:30;;;;;;;10.52;5.65;;;;;;;19.10;82.47;100712.97;4978462;28;20052;-71
2023/08/14 04:03:55;;;;;;;8.73;5.43;;;;;;;19.09;81.99;100713.88;4995643;28;20022;-70
2023/08/14 04:06:22;;;;;;;8.38;5.95;;;;;;;19.04;82.15;100719.06;5013211;28;20144;-70
2023/08/14 04:08:47;;;;;;;11.98;5.70;;;;;;;19.04;82.14;100710.31;5012836;28;20030;-71
2023/08/14 04:11:13;;;;;;;15.13;5.90;;;;;;;19.05;82.67;100710.34;5013226;28;20061;-71
2023/08/14 04:13:38;;;;;;;12.73;5.45;;;;;;;19.01;82.25;100697.25;4995356;28;20029;-71
2023/08/14 04:16:04;;;;;;;8.27;5.65;;;;;;;18.80;82.80;100659.56;5012941;28;20033;-71
2023/08/14 04:18:30;;;;;;;9.68;5.68;;;;;;;19.15;83.29;100721.75;4995470;28;20022;-71
2023/08/14 04:20:57;;;;;;;10.27;5.13;;;;;;;19.00;83.57;100709.44;5012799;28;20477;-71
2023/08/14 04:23:24;;;;;;;13.18;6.18;;;;;;;18.88;82.29;100667.50;4995000;28;20036;-70
2023/08/14 04:25:52;;;;;;;11.02;5.65;;;;;;;19.25;82.37;100709.56;5012687;28;20041;-71
2023/08/14 04:28:18;;;;;;;7.43;5.40;;;;;;;19.30;82.06;100710.50;5012933;28;20026;-71
2023/08/14 04:30:43;;;;;;;13.88;5.70;;;;;;;19.36;81.73;100715.72;5012785;28;20026;-71
2023/08/14 04:33:28;;;;;;;14.43;5.70;;;;;;;19.42;81.49;100712.28;4971185;28;20114;-71
2023/08/14 04:35:54;;;;;;;14.95;6.40;;;;;;;19.45;81.52;100722.78;4971027;28;20197;-71
2023/08/14 04:38:19;;;;;;;10.80;5.82;;;;;;;19.24;82.91;100732.25;4971512;28;20072;-71
2023/08/14 04:40:46;;;;;;;9.90;5.53;;;;;;;18.80;84.92;100722.34;4970375;28;20037;-71
2023/08/14 04:43:11;;;;;;;8.35;5.47;;;;;;;18.29;85.71;100669.66;4971081;28;20039;-71
2023/08/14 04:45:37;;;;;;;11.55;5.80;;;;;;;18.85;85.36;100730.25;4971032;28;20038;-70
2023/08/14 04:48:02;;;;;;;11.20;7.00;;;;;;;18.97;83.86;100729.50;4970995;28;20039;-71
2023/08/14 04:50:28;;;;;;;8.30;5.70;;;;;;;18.72;85.36;100738.00;4954385;28;20426;-71
2023/08/14 04:52:53;;;;;;;13.30;5.25;;;;;;;18.77;85.64;100727.56;4971074;28;20486;-71
2023/08/14 04:55:23;;;;;;;10.38;5.78;;;;;;;18.88;84.53;100731.13;4970874;28;20121;-71
2023/08/14 04:57:48;;;;;;;10.38;6.15;;;;;;;19.06;85.27;100734.78;4955153;28;20041;-71
2023/08/14 05:00:14;;;;;;;12.57;9.13;;;;;;;18.72;86.31;100724.91;4970890;28;20117;-71
2023/08/14 05:02:40;;;;;;;23.23;14.13;;;;;;;18.80;86.72;100730.19;4970675;28;20041;-71
2023/08/14 05:05:05;;;;;;;26.48;20.23;;;;;;;18.82;86.68;100732.84;4970237;28;20050;-71
2023/08/14 05:07:30;;;;;;;39.72;31.38;;;;;;;18.54;87.72;100730.91;4970378;28;20059;-70
2023/08/14 05:09:56;;;;;;;37.05;28.73;;;;;;;18.81;86.38;100746.78;4974571;28;20035;-70
2023/08/14 05:12:21;;;;;;;27.02;21.00;;;;;;;19.03;86.70;100740.00;5011640;28;20038;-71
2023/08/14 05:14:48;;;;;;;28.35;21.27;;;;;;;19.14;84.22;100738.31;5012038;28;20052;-70
2023/08/14 05:17:13;;;;;;;21.70;11.35;;;;;;;19.21;83.94;100745.31;5011874;28;20481;-71
2023/08/14 05:19:39;;;;;;;12.50;7.85;;;;;;;19.32;82.85;100742.78;4994220;28;20033;-71
2023/08/14 05:22:04;;;;;;;9.68;7.30;;;;;;;19.48;82.05;100738.50;5011761;28;20030;-71
2023/08/14 05:24:29;;;;;;;9.80;6.47;;;;;;;19.50;82.41;100734.16;5011726;28;20029;-71
2023/08/14 05:26:55;;;;;;;10.90;6.63;;;;;;;19.49;82.77;100728.88;5011529;28;20482;-70
2023/08/14 05:29:22;;;;;;;9.73;6.07;;;;;;;19.70;82.93;100728.09;5011734;28;20022;-71
2023/08/14 05:31:47;;;;;;;7.47;4.60;;;;;;;19.78;81.77;100720.28;5011580;28;20145;-71
2023/08/14 05:34:13;;;;;;;6.35;4.93;;;;;;;19.69;81.13;100672.22;5011282;28;20117;-71
2023/08/14 05:36:38;;;;;;;9.52;4.60;;;;;;;19.88;80.23;100667.06;5011628;28;20508;-71
2023/08/14 05:39:04;;;;;;;15.25;5.10;;;;;;;20.43;80.36;100736.16;5011460;28;20030;-71
2023/08/14 05:41:29;;;;;;;7.68;4.75;;;;;;;20.65;79.08;100731.78;5011429;28;20068;-71
2023/08/14 05:43:55;;;;;;;12.35;7.75;;;;;;;20.72;78.28;100735.31;5011200;28;20036;-71
2023/08/14 05:46:23;;;;;;;12.13;6.25;;;;;;;20.20;78.75;100622.53;5011365;28;20026;-71
2023/08/14 05:48:51;;;;;;;11.97;6.07;;;;;;;21.04;76.66;100734.41;5011224;28;20029;-70
2023/08/14 05:51:16;;;;;;;8.48;5.03;;;;;;;21.00;76.42;100725.66;5011221;28;20026;-71
2023/08/14 05:53:42;;;;;;;7.45;5.07;;;;;;;21.12;77.81;100727.34;5011102;28;20026;-71
2023/08/14 05:56:07;;;;;;;13.60;9.20;;;;;;;21.28;76.21;100731.72;5011024;28;20531;-71
2023/08/14 05:58:33;;;;;;;14.13;6.50;;;;;;;21.42;77.34;100736.91;5011068;28;20034;-71
2023/08/14 06:00:58;;;;;;;6.40;4.95;;;;;;;21.47;75.83;100729.88;5011287;28;20378;-71
2023/08/14 06:03:23;;;;;;;8.52;5.03;;;;;;;21.54;74.09;100735.97;5011289;28;20042;-71
2023/08/14 06:05:49;;;;;;;10.02;5.15;;;;;;;21.65;76.22;100738.59;5010919;28;20440;-71
2023/08/14 06:08:14;;;;;;;8.23;4.78;;;;;;;21.76;74.38;100736.78;5011255;28;20026;-71
2023/08/14 06:10:40;;;;;;;9.77;5.53;;;;;;;21.92;73.89;100732.31;4993429;28;20092;-71
2023/08/14 06:13:07;;;;;;;6.68;4.72;;;;;;;21.45;72.43;100621.31;5010926;28;20042;-71
2023/08/14 06:15:32;;;;;;;7.15;4.55;;;;;;;22.21;74.42;100726.00;5010969;28;20073;-71
2023/08/14 06:17:58;;;;;;;7.40;4.05;;;;;;;22.27;71.70;100720.69;5011105;28;20080;-71
2023/08/14 06:20:23;;;;;;;10.27;3.78;;;;;;;22.59;70.99;100730.13;5010913;28;20030;-71
2023/08/14 06:22:49;;;;;;;5.13;3.33;;;;;;;22.74;68.41;100728.22;5010754;28;20036;-71
2023/08/14 06:49:23;;;;;;;7.15;3.70;;;;;;;23.71;65.27;100718.38;5011220;28;20092;-71
2023/08/14 06:51:51;;;;;;;7.75;4.03;;;;;;;23.54;63.25;100656.25;5010693;28;20033;-72
2023/08/14 07:37:06;;;;;;;5.68;3.47;;;;;;;26.11;56.67;100687.63;5011667;28;20065;-72
2023/08/14 07:39:31;;;;;;;8.57;4.25;;;;;;;26.10;55.05;100647.06;5013682;28;20033;-72
2023/08/14 07:41:57;;;;;;;5.43;3.20;;;;;;;26.62;53.37;100663.38;5013632;28;20030;-72
2023/08/14 07:44:22;;;;;;;8.43;3.55;;;;;;;26.99;54.54;100690.66;5013427;28;20042;-72
2023/08/14 07:46:47;;;;;;;8.27;3.10;;;;;;;27.00;51.78;100678.31;5013354;28;20041;-72
2023/08/14 07:49:13;;;;;;;5.78;3.13;;;;;;;27.02;53.25;100685.28;5013369;28;20854;-72
2023/08/14 07:51:38;;;;;;;8.68;3.45;;;;;;;26.69;53.65;100624.34;5013394;28;20497;-72
2023/08/14 07:54:04;;;;;;;4.10;2.80;;;;;;;26.74;52.91;100619.84;5013267;28;20037;-72
2023/08/14 07:56:29;;;;;;;4.93;3.20;;;;;;;27.06;51.67;100665.72;5014005;28;20061;-72
2023/08/14 07:58:54;;;;;;;6.50;3.00;;;;;;;27.20;53.12;100667.13;5013646;28;20462;-72
2023/08/14 08:01:20;;;;;;;17.90;4.63;;;;;;;27.42;52.83;100668.25;5013531;28;20532;-72
2023/08/14 08:03:45;;;;;;;11.40;4.53;;;;;;;27.59;53.73;100675.69;5013247;28;20030;-72
2023/08/14 08:06:11;;;;;;;18.20;5.70;;;;;;;27.34;54.03;100617.22;5013236;28;20048;-72
2023/08/14 08:08:36;;;;;;;11.32;3.67;;;;;;;27.73;51.70;100672.63;5013325;28;20030;-72
2023/08/14 08:11:01;;;;;;;9.18;3.53;;;;;;;27.68;56.08;100649.81;5013463;28;20026;-73
2023/08/14 08:13:27;;;;;;;5.57;3.47;;;;;;;27.76;55.21;100659.28;5008510;28;20099;-73
2023/08/14 08:15:52;;;;;;;20.67;5.03;;;;;;;27.89;55.21;100659.72;5011857;28;20482;-72
2023/08/14 08:18:18;;;;;;;20.77;5.43;;;;;;;27.94;55.19;100662.25;5012968;28;20119;-72
2023/08/14 08:20:43;;;;;;;10.88;4.40;;;;;;;27.98;54.26;100666.53;5012763;28;20022;-72
2023/08/14 08:23:09;;;;;;;12.88;4.57;;;;;;;27.66;54.79;100617.16;5013066;28;20038;-72
2023/08/14 08:25:34;;;;;;;20.27;5.85;;;;;;;27.84;55.27;100645.75;5013054;28;20026;-73
2023/08/14 08:27:59;;;;;;;20.25;5.20;;;;;;;27.88;56.61;100665.94;5012748;28;20080;-72
2023/08/14 08:30:25;;;;;;;10.52;4.60;;;;;;;27.61;57.16;100619.94;5012778;28;20105;-72
2023/08/14 08:32:50;;;;;;;9.52;3.65;;;;;;;27.91;57.53;100670.28;5012542;28;20112;-72
2023/08/14 08:35:16;;;;;;;10.20;3.83;;;;;;;27.97;57.57;100670.09;5012409;28;20025;-72
2023/08/14 08:37:41;;;;;;;9.07;3.58;;;;;;;27.71;58.87;100617.88;5012407;28;20140;-72
2023/08/14 08:40:08;;;;;;;15.27;5.13;;;;;;;28.04;59.11;100644.28;5012502;28;20108;-74
2023/08/14 08:42:34;;;;;;;14.18;4.95;;;;;;;28.09;57.89;100655.59;5012579;28;20030;-72
2023/08/14 08:45:04;;;;;;;17.30;5.28;;;;;;;28.34;58.72;100660.09;5012422;28;20524;-73
2023/08/14 08:47:35;;;;;;;14.65;4.40;;;;;;;28.48;56.52;100651.63;5012567;28;20087;-72
2023/08/14 08:50:01;;;;;;;13.95;5.47;;;;;;;28.49;57.63;100646.28;5012464;28;20030;-72
2023/08/14 08:52:27;;;;;;;14.80;5.10;;;;;;;28.49;57.86;100648.06;5012783;28;20112;-72
2023/08/14 08:54:54;;;;;;;7.25;3.70;;;;;;;28.37;58.19;100633.41;5012394;28;20065;-72
2023/08/14 08:57:21;;;;;;;13.88;4.65;;;;;;;28.48;58.65;100648.97;5012268;28;20401;-72
2023/08/14 08:59:47;;;;;;;9.20;3.80;;;;;;;28.34;58.10;100636.19;5012216;28;20104;-72
2023/08/14 09:02:13;;;;;;;6.80;3.88;;;;;;;28.16;58.25;100606.69;4994492;28;20037;-73
2023/08/14 09:04:38;;;;;;;7.50;4.03;;;;;;;28.38;59.29;100651.09;5012051;28;20040;-73
2023/08/14 09:07:05;;;;;;;7.50;3.58;;;;;;;28.33;59.59;100651.25;5012274;28;20029;-72
2023/08/14 09:09:30;;;;;;;6.22;3.65;;;;;;;28.25;58.65;100645.31;5012207;28;20030;-73
2023/08/14 09:11:56;;;;;;;6.35;3.35;;;;;;;27.91;58.83;100607.50;5012346;28;20030;-72
2023/08/14 09:14:22;;;;;;;8.32;3.67;;;;;;;28.15;59.42;100651.84;4961308;28;20112;-73
2023/08/14 09:16:52;;;;;;;8.32;4.32;;;;;;;28.21;59.61;100659.63;5012101;28;20022;-73
2023/08/14 09:19:18;;;;;;;13.50;4.65;;;;;;;28.26;58.51;100647.06;5011650;28;20050;-72
2023/08/14 09:21:45;;;;;;;20.27;5.10;;;;;;;28.03;59.05;100597.38;5011947;28;20033;-72
2023/08/14 09:24:12;;;;;;;6.40;3.67;;;;;;;28.32;59.94;100644.19;5011893;28;20042;-73
2023/08/14 09:26:38;;;;;;;10.30;4.05;;;;;;;28.31;59.23;100655.72;5011800;28;20189;-72
2023/08/14 09:29:04;;;;;;;6.03;3.50;;;;;;;28.31;58.18;100647.75;5011575;28;20100;-72
2023/08/14 09:31:31;;;;;;;6.63;3.58;;;;;;;28.24;58.74;100635.63;5011290;28;20497;-73
2023/08/14 09:33:56;;;;;;;6.25;3.95;;;;;;;28.42;60.77;100644.75;5011449;28;20457;-73
2023/08/14 09:36:22;;;;;;;11.40;3.80;;;;;;;28.56;59.11;100647.78;5011576;28;20041;-73
2023/08/14 09:38:51;;;;;;;14.27;4.53;;;;;;;28.58;58.08;100637.97;5011274;28;20686;-72
2023/08/14 09:41:19;;;;;;;7.88;3.72;;;;;;;28.62;57.89;100645.84;5011786;28;20167;-72
2023/08/14 09:43:45;;;;;;;9.82;3.60;;;;;;;28.68;56.85;100632.38;5011556;28;20033;-73
2023/08/14 09:46:13;;;;;;;6.05;3.75;;;;;;;28.68;56.66;100637.69;5011244;28;20501;-73
2023/08/14 09:48:40;;;;;;;4.68;3.30;;;;;;;28.67;56.92;100635.91;5011623;28;20021;-73
2023/08/14 09:51:10;;;;;;;7.20;3.40;;;;;;;28.64;55.78;100636.03;5011471;28;20040;-73
2023/08/14 09:53:42;;;;;;;;;;;;;;;28.67;55.17;100636.78;5011806;28;20210;-73
2023/08/14 09:56:08;;;;;;;7.50;3.60;;;;;;;28.73;56.15;100569.31;5011206;28;19906;-73
2023/08/14 09:58:33;;;;;;;6.03;3.40;;;;;;;29.14;54.76;100630.66;5011234;28;20026;-73
2023/08/14 10:00:59;;;;;;;9.05;3.60;;;;;;;28.84;53.67;100575.06;5010915;28;20029;-72
2023/08/14 10:03:25;;;;;;;10.27;3.80;;;;;;;29.42;54.97;100620.78;5011103;28;20034;-72
2023/08/14 10:05:51;;;;;;;7.97;3.70;;;;;;;29.77;51.78;100611.38;5011223;28;20041;-72
2023/08/14 10:08:16;;;;;;;6.43;3.05;;;;;;;30.04;50.51;100621.81;5011175;28;20022;-72
2023/08/14 10:10:42;;;;;;;7.95;3.45;;;;;;;29.92;51.38;100617.00;5011283;28;20045;-73
2023/08/14 10:13:09;;;;;;;7.05;3.42;;;;;;;29.80;52.42;100623.69;5011119;28;20030;-73
2023/08/14 10:15:41;;;;;;;13.02;4.10;;;;;;;29.72;50.45;100618.69;5010928;28;20026;-73
2023/08/14 10:18:16;;;;;;;13.80;3.83;;;;;;;29.80;50.35;100603.25;5010921;28;20029;-73
2023/08/14 10:20:46;;;;;;;12.25;4.25;;;;;;;30.17;51.24;100601.75;5010879;28;20030;-73
2023/08/14 10:23:13;;;;;;;7.10;3.17;;;;;;;30.40;50.04;100594.53;4961212;28;20560;-73
2023/08/14 10:25:39;;;;;;;23.58;4.40;;;;;;;30.69;49.20;100592.41;5010951;28;20026;-71
2023/08/14 10:28:07;;;;;;;9.73;3.33;;;;;;;30.79;47.53;100591.06;5010716;28;20104;-73
2023/08/14 10:30:54;;;;;;;6.50;3.13;;;;;;;30.66;47.22;100579.22;5010759;28;20104;-71
2023/08/14 10:33:21;;;;;;;7.00;3.08;;;;;;;30.59;46.42;100588.44;5010478;28;20121;-73
2023/08/14 10:35:55;;;;;;;5.05;2.95;;;;;;;30.65;46.19;100578.34;5010562;28;20026;-72
2023/08/14 10:38:41;;;;;;;6.82;3.50;;;;;;;30.74;45.73;100579.72;5010456;28;20478;-73
2023/08/14 10:41:08;;;;;;;12.68;3.58;;;;;;;31.09;44.56;100571.06;5009886;28;20096;-73
2023/08/14 10:43:33;;;;;;;19.23;4.80;;;;;;;31.32;43.92;100550.41;5010692;28;20033;-72
2023/08/14 10:46:04;;;;;;;7.20;3.38;;;;;;;31.75;41.37;100565.22;5010697;28;20034;-72
2023/08/14 10:48:35;;;;;;;4.80;2.83;;;;;;;31.41;43.72;100517.97;5010873;28;20037;-72
2023/08/14 10:51:01;;;;;;;15.15;4.40;;;;;;;31.60;40.56;100582.84;5010614;28;20478;-72
2023/08/14 10:53:30;;;;;;;15.07;4.30;;;;;;;31.56;39.30;100559.88;4992930;28;20117;-72
2023/08/14 10:55:56;;;;;;;9.48;3.72;;;;;;;31.71;39.57;100566.28;5010584;28;20146;-72
2023/08/14 10:58:36;;;;;;;17.02;4.00;;;;;;;31.77;39.36;100557.97;5010513;28;20033;-73
2023/08/14 11:01:11;;;;;;;12.13;3.47;;;;;;;31.74;39.58;100560.81;5010874;28;20052;-72
2023/08/14 11:04:03;;;;;;;13.90;3.50;;;;;;;31.75;39.09;100559.88;4992882;28;20071;-73
2023/08/14 11:06:45;;;;;;;9.73;4.03;;;;;;;31.61;38.98;100555.19;5010351;28;20065;-72
2023/08/14 11:09:10;;;;;;;15.45;3.72;;;;;;;31.67;39.75;100553.19;5010417;28;20441;-72
2023/08/14 11:11:43;;;;;;;13.18;4.10;;;;;;;31.37;39.43;100498.59;4992575;28;20037;-72
2023/08/14 11:14:09;;;;;;;9.05;3.20;;;;;;;31.48;39.34;100529.19;5010578;28;20036;-72
2023/08/14 11:16:35;;;;;;;10.38;4.22;;;;;;;31.49;40.15;100546.94;5010267;28;20050;-72
2023/08/14 11:19:01;;;;;;;20.95;4.32;;;;;;;31.72;39.43;100544.00;5006983;28;20113;-72
2023/08/14 11:21:26;;;;;;;10.98;3.35;;;;;;;31.74;40.55;100549.25;5010313;28;20033;-71
2023/08/14 11:23:52;;;;;;;13.85;3.42;;;;;;;31.74;39.43;100535.91;5010427;28;20032;-72
2023/08/14 11:26:18;;;;;;;16.80;3.67;;;;;;;31.83;39.64;100532.78;4992755;28;20109;-72
2023/08/14 11:28:44;;;;;;;10.10;3.05;;;;;;;32.02;38.07;100532.69;4992668;28;20061;-72
2023/08/14 11:31:09;;;;;;;9.45;3.50;;;;;;;32.16;38.02;100523.09;5010235;28;20022;-72
2023/08/14 11:33:35;;;;;;;13.30;3.40;;;;;;;32.38;39.24;100529.06;5010433;28;20092;-72
2023/08/14 11:36:00;;;;;;;11.20;3.50;;;;;;;32.34;38.72;100529.28;5010059;28;20081;-72
2023/08/14 11:38:26;;;;;;;19.83;4.72;;;;;;;31.79;38.63;100453.81;5010088;28;20473;-71
2023/08/14 11:40:52;;;;;;;12.20;3.95;;;;;;;31.49;39.02;100392.19;4992632;28;20109;-73
2023/08/14 11:43:18;;;;;;;11.98;4.13;;;;;;;32.43;37.78;100502.94;4992722;28;20034;-72
2023/08/14 11:45:44;;;;;;;13.93;3.90;;;;;;;32.60;38.19;100511.88;5009684;28;20033;-73
2023/08/14 11:48:09;;;;;;;19.13;3.72;;;;;;;32.76;39.02;100516.38;5010663;28;20026;-73
2023/08/14 11:50:35;;;;;;;11.55;3.35;;;;;;;32.89;37.16;100506.75;5011487;28;20036;-72
2023/08/14 11:53:01;;;;;;;9.95;3.70;;;;;;;32.89;37.74;100499.56;5013276;28;20061;-73
2023/08/14 11:55:27;;;;;;;5.88;2.70;;;;;;;32.83;36.57;100504.41;5012974;28;20069;-73
2023/08/14 11:57:53;;;;;;;15.98;3.88;;;;;;;32.94;37.56;100507.34;5013384;28;20033;-72
2023/08/14 12:00:20;;;;;;;8.02;3.05;;;;;;;33.19;36.42;100503.28;5013645;28;20034;-72
2023/08/14 12:02:46;;;;;;;14.63;3.72;;;;;;;33.20;35.71;100489.81;5013466;28;20029;-72
2023/08/14 12:05:12;;;;;;;20.15;4.18;;;;;;;33.35;35.92;100489.91;4989407;28;20046;-72
2023/08/14 12:07:41;;;;;;;16.45;3.80;;;;;;;33.41;36.81;100504.72;5013477;28;20022;-72
2023/08/14 12:10:08;;;;;;;7.65;3.13;;;;;;;33.53;35.64;100495.97;5012926;28;20026;-73
2023/08/14 12:12:34;;;;;;;6.68;3.13;;;;;;;33.48;36.14;100511.44;5013095;28;20062;-72
2023/08/14 12:14:59;;;;;;;8.23;3.05;;;;;;;33.45;36.54;100501.78;5013250;28;20068;-72
2023/08/14 12:17:25;;;;;;;14.57;4.05;;;;;;;33.56;35.04;100490.44;5013094;28;20105;-73
2023/08/14 12:19:55;;;;;;;15.18;3.58;;;;;;;33.63;34.34;100499.81;5012904;28;20026;-73
2023/08/14 12:22:25;;;;;;;12.55;3.65;;;;;;;33.26;35.32;100501.09;5012915;28;20026;-73
2023/08/14 12:24:51;;;;;;;6.47;3.15;;;;;;;33.27;34.30;100494.78;5012628;28;20033;-72
2023/08/14 12:27:19;;;;;;;13.20;3.20;;;;;;;33.38;34.43;100468.31;4995584;28;20022;-72